createdAt,value
2018-01-20T00:01:54.357Z,9.85
2018-01-20T00:04:21.210Z,9.15
2018-01-20T00:06:48.065Z,12.73
2018-01-20T00:09:27.297Z,12.55
2018-01-20T00:12:01.262Z,13.48
2018-01-20T00:14:28.821Z,11.90
2018-01-20T00:16:56.427Z,12.30
2018-01-20T00:19:23.269Z,15.30
2018-01-20T00:21:50.114Z,16.92
2018-01-20T00:24:16.962Z,13.32
2018-01-20T00:26:43.869Z,12.15
2018-01-20T00:29:10.712Z,15.60
2018-01-20T00:31:37.600Z,11.48
2018-01-20T00:34:04.501Z,15.68
2018-01-20T00:36:31.354Z,14.25
2018-01-20T00:38:58.225Z,13.62
2018-01-20T00:41:25.042Z,13.75
2018-01-20T00:43:51.885Z,15.55
2018-01-20T00:46:18.737Z,17.02
2018-01-20T00:48:45.611Z,12.68
2018-01-20T00:51:12.457Z,11.95
2018-01-20T00:53:39.262Z,13.23
2018-01-20T00:56:06.108Z,15.43
2018-01-20T00:58:33.094Z,11.93
2018-01-20T01:00:59.948Z,10.10
2018-01-20T01:03:26.773Z,12.05
2018-01-20T01:05:54.345Z,13.68
2018-01-20T01:08:22.462Z,13.00
2018-01-20T01:10:49.309Z,13.02
2018-01-20T01:13:16.133Z,13.18
2018-01-20T01:15:43.046Z,18.17
2018-01-20T01:18:10.674Z,10.70
2018-01-20T01:20:37.578Z,14.38
2018-01-20T01:23:05.145Z,13.18
2018-01-20T01:25:31.966Z,8.70
2018-01-20T01:27:58.850Z,10.30
2018-01-20T01:30:25.714Z,9.43
2018-01-20T01:32:52.601Z,12.00
2018-01-20T01:35:19.454Z,10.88
2018-01-20T01:37:47.377Z,11.65
2018-01-20T01:40:14.977Z,10.57
2018-01-20T01:42:41.803Z,8.90
2018-01-20T01:45:08.682Z,14.27
2018-01-20T01:47:35.606Z,9.80
2018-01-20T01:50:02.521Z,8.73
2018-01-20T01:52:30.106Z,8.05
2018-01-20T01:54:56.934Z,8.40
2018-01-20T01:57:26.647Z,10.80
2018-01-20T01:59:53.486Z,7.95
2018-01-20T02:02:21.062Z,9.27
2018-01-20T02:04:48.629Z,10.90
2018-01-20T02:07:15.514Z,18.23
2018-01-20T02:09:42.433Z,10.10
2018-01-20T02:12:09.262Z,9.50
2018-01-20T02:14:36.135Z,9.80
2018-01-20T02:17:03.007Z,7.75
2018-01-20T02:19:30.074Z,9.93
2018-01-20T02:21:56.927Z,11.80
2018-01-20T02:24:23.806Z,10.45
2018-01-20T02:26:50.773Z,12.80
2018-01-20T02:29:17.618Z,11.38
2018-01-20T02:31:44.500Z,9.20
2018-01-20T02:34:11.350Z,11.07
2018-01-20T02:36:38.250Z,8.77
2018-01-20T02:39:05.186Z,9.10
2018-01-20T02:41:32.010Z,8.85
2018-01-20T02:43:58.889Z,8.23
2018-01-20T02:46:25.752Z,7.65
2018-01-20T02:48:52.646Z,13.05
2018-01-20T02:51:19.686Z,9.13
2018-01-20T02:53:46.516Z,11.50
2018-01-20T02:56:13.353Z,8.85
2018-01-20T02:58:40.237Z,10.38
2018-01-20T03:01:07.053Z,8.38
2018-01-20T03:03:33.922Z,8.90
2018-01-20T03:06:00.776Z,10.48
2018-01-20T03:08:27.722Z,7.00
2018-01-20T03:10:54.537Z,11.95
2018-01-20T03:13:21.398Z,8.13
2018-01-20T03:15:48.213Z,7.07
2018-01-20T03:18:15.080Z,12.07
2018-01-20T03:20:41.939Z,8.52
2018-01-20T03:23:09.562Z,8.68
2018-01-20T03:25:37.194Z,8.63
2018-01-20T03:28:04.123Z,8.27
2018-01-20T03:30:31.028Z,8.35
2018-01-20T03:32:57.910Z,7.35
2018-01-20T03:35:24.776Z,8.32
2018-01-20T03:37:51.693Z,8.73
2018-01-20T03:40:18.489Z,10.40
2018-01-20T03:42:45.322Z,8.63
2018-01-20T03:45:12.197Z,8.52
2018-01-20T03:47:39.160Z,10.68
2018-01-20T03:50:06.806Z,7.55
2018-01-20T03:52:34.417Z,8.23
2018-01-20T03:55:01.287Z,9.52
2018-01-20T03:57:28.129Z,11.65
2018-01-20T03:59:54.989Z,8.30
2018-01-20T04:02:21.817Z,8.88
2018-01-20T04:04:48.702Z,12.60
2018-01-20T04:07:17.387Z,13.38
2018-01-20T04:09:44.941Z,11.35
2018-01-20T04:12:12.569Z,9.25
2018-01-20T04:14:39.397Z,11.05
2018-01-20T04:17:06.272Z,11.93
2018-01-20T04:19:33.877Z,11.65
2018-01-20T04:22:00.709Z,11.38
2018-01-20T04:24:27.578Z,12.35
2018-01-20T04:26:54.557Z,9.23
2018-01-20T04:29:21.437Z,9.48
2018-01-20T04:31:49.055Z,9.45
2018-01-20T04:34:15.858Z,13.60
2018-01-20T04:36:42.701Z,15.00
2018-01-20T04:39:09.634Z,10.57
2018-01-20T04:41:36.520Z,13.32
2018-01-20T04:44:03.370Z,11.82
2018-01-20T04:46:30.192Z,11.25
2018-01-20T04:48:57.090Z,12.48
2018-01-20T04:51:24.666Z,12.85
2018-01-20T04:53:51.529Z,11.82
2018-01-20T04:56:18.385Z,10.40
2018-01-20T04:58:45.247Z,13.40
2018-01-20T05:01:12.058Z,12.00
2018-01-20T05:03:38.922Z,14.50
2018-01-20T05:06:05.753Z,16.37
2018-01-20T05:08:32.609Z,13.60
2018-01-20T05:10:59.456Z,15.18
2018-01-20T05:13:26.270Z,17.33
2018-01-20T05:15:53.073Z,12.07
2018-01-20T05:18:20.725Z,13.43
2018-01-20T05:20:47.538Z,12.68
2018-01-20T05:23:14.362Z,14.25
2018-01-20T05:25:41.213Z,12.75
2018-01-20T05:28:08.189Z,12.40
2018-01-20T05:30:35.062Z,10.82
2018-01-20T05:33:02.803Z,10.48
2018-01-20T05:35:29.613Z,12.20
2018-01-20T05:37:56.571Z,11.35
2018-01-20T05:40:23.440Z,11.38
2018-01-20T05:42:51.045Z,15.43
2018-01-20T05:45:17.946Z,15.60
2018-01-20T05:47:45.595Z,13.55
2018-01-20T05:50:12.465Z,10.77
2018-01-20T05:52:39.269Z,16.80
2018-01-20T05:55:06.130Z,12.20
2018-01-20T05:57:33.792Z,14.00
2018-01-20T06:00:00.646Z,11.05
2018-01-20T06:02:27.461Z,12.57
2018-01-20T06:04:54.368Z,14.50
2018-01-20T06:07:21.250Z,15.43
2018-01-20T06:09:48.825Z,17.52
2018-01-20T06:12:16.422Z,13.40
2018-01-20T06:14:43.365Z,10.60
2018-01-20T06:17:10.537Z,11.70
2018-01-20T06:19:37.450Z,11.95
2018-01-20T06:22:04.393Z,11.60
2018-01-20T06:24:31.434Z,16.80
2018-01-20T06:26:59.086Z,16.70
2018-01-20T06:29:26.660Z,12.32
2018-01-20T06:31:53.522Z,15.55
2018-01-20T06:34:20.371Z,12.82
2018-01-20T06:36:47.193Z,16.17
2018-01-20T06:39:14.074Z,12.57
2018-01-20T06:41:40.922Z,17.10
2018-01-20T06:44:07.776Z,13.75
2018-01-20T06:46:34.598Z,12.10
2018-01-20T06:49:01.502Z,11.50
2018-01-20T06:51:28.386Z,11.68
2018-01-20T06:53:55.269Z,11.23
2018-01-20T06:56:22.846Z,12.57
2018-01-20T06:58:49.818Z,15.10
2018-01-20T07:01:16.710Z,13.15
2018-01-20T07:03:43.621Z,13.85
2018-01-20T07:06:10.465Z,12.48
2018-01-20T07:08:37.382Z,9.77
2018-01-20T07:11:05.009Z,12.52
2018-01-20T07:13:31.908Z,10.35
2018-01-20T07:15:58.790Z,11.77
2018-01-20T07:18:25.766Z,12.77
2018-01-20T07:20:53.346Z,13.15
2018-01-20T07:23:20.928Z,11.60
2018-01-20T07:25:47.753Z,11.00
2018-01-20T07:28:14.770Z,12.27
2018-01-20T07:30:41.653Z,13.52
2018-01-20T07:33:08.538Z,16.05
2018-01-20T07:35:35.398Z,19.37
2018-01-20T07:38:03.089Z,15.60
2018-01-20T07:40:29.930Z,14.30
2018-01-20T07:42:57.255Z,15.23
2018-01-20T07:45:24.505Z,16.33
2018-01-20T07:47:52.365Z,19.70
2018-01-20T07:50:20.657Z,21.33
2018-01-20T07:52:48.975Z,18.45
2018-01-20T07:55:16.264Z,17.12
2018-01-20T07:57:44.448Z,16.12
2018-01-20T08:00:11.904Z,28.92
2018-01-20T08:02:39.477Z,24.37
2018-01-20T08:05:06.489Z,22.85
2018-01-20T08:07:33.452Z,21.75
2018-01-20T08:10:00.302Z,19.70
2018-01-20T08:12:27.915Z,19.20
2018-01-20T08:14:54.785Z,15.68
2018-01-20T08:17:21.629Z,20.98
2018-01-20T08:19:48.481Z,18.23
2018-01-20T08:22:16.050Z,17.62
2018-01-20T08:24:43.646Z,20.42
2018-01-20T08:27:10.525Z,17.75
2018-01-20T08:29:37.322Z,17.87
2018-01-20T08:32:04.221Z,15.30
2018-01-20T08:34:31.091Z,20.02
2018-01-20T08:36:58.022Z,14.27
2018-01-20T08:39:24.885Z,13.90
2018-01-20T08:41:51.748Z,17.60
2018-01-20T08:44:18.590Z,15.80
2018-01-20T08:46:45.442Z,16.70
2018-01-20T08:49:12.355Z,14.68
2018-01-20T08:51:39.930Z,19.02
2018-01-20T08:54:07.487Z,25.25
2018-01-20T08:56:34.316Z,23.20
2018-01-20T08:59:01.893Z,27.83
2018-01-20T09:01:28.757Z,20.92
2018-01-20T09:03:55.589Z,17.10
2018-01-20T09:06:22.466Z,25.77
2018-01-20T09:08:49.332Z,18.58
2018-01-20T09:11:16.938Z,18.30
2018-01-20T09:13:43.753Z,18.90
2018-01-20T09:16:11.317Z,24.80
2018-01-20T09:18:38.251Z,18.58
2018-01-20T09:21:05.814Z,18.58
2018-01-20T09:23:33.429Z,16.92
2018-01-20T09:26:00.255Z,15.75
2018-01-20T09:28:27.948Z,15.90
2018-01-20T09:30:54.806Z,16.30
2018-01-20T09:33:21.629Z,14.87
2018-01-20T09:35:48.473Z,17.35
2018-01-20T09:38:15.406Z,17.50
2018-01-20T09:40:42.254Z,18.48
2018-01-20T09:43:09.144Z,15.65
2018-01-20T09:45:35.989Z,17.48
2018-01-20T09:48:03.605Z,17.02
2018-01-20T09:50:30.494Z,14.07
2018-01-20T09:52:57.464Z,18.02
2018-01-20T09:55:24.307Z,11.05
2018-01-20T09:57:51.145Z,10.55
2018-01-20T10:00:18.761Z,10.68
2018-01-20T10:02:45.678Z,11.50
2018-01-20T10:05:12.525Z,12.82
2018-01-20T10:07:39.405Z,10.75
2018-01-20T10:10:06.276Z,11.80
2018-01-20T10:12:33.853Z,12.65
2018-01-20T10:15:00.710Z,13.75
2018-01-20T10:17:27.654Z,15.90
2018-01-20T10:19:54.506Z,19.83
2018-01-20T10:22:21.357Z,19.83
2018-01-20T10:24:48.181Z,13.90
2018-01-20T10:27:15.027Z,18.23
2018-01-20T10:29:41.901Z,10.70
2018-01-20T10:32:09.478Z,16.67
2018-01-20T10:34:36.330Z,13.95
2018-01-20T10:37:03.233Z,9.15
2018-01-20T10:39:30.057Z,10.77
2018-01-20T10:41:56.954Z,15.45
2018-01-20T10:44:23.821Z,12.52
2018-01-20T10:46:50.648Z,10.37
2018-01-20T10:49:17.484Z,9.70
2018-01-20T10:51:45.110Z,9.63
2018-01-20T10:54:12.717Z,8.93
2018-01-20T10:56:39.530Z,8.23
2018-01-20T10:59:06.614Z,7.80
2018-01-20T11:01:33.485Z,8.97
2018-01-20T11:04:00.302Z,9.37
2018-01-20T11:06:27.172Z,8.43
2018-01-20T11:08:54.042Z,9.00
2018-01-20T11:11:20.865Z,8.97
2018-01-20T11:13:47.712Z,10.17
2018-01-20T11:16:14.515Z,9.03
2018-01-20T11:18:41.442Z,9.60
2018-01-20T11:21:08.302Z,8.27
2018-01-20T11:23:35.172Z,15.70
2018-01-20T11:26:02.025Z,7.20
2018-01-20T11:28:28.985Z,10.10
2018-01-20T11:30:55.811Z,24.03
2018-01-20T11:33:22.687Z,9.57
2018-01-20T11:35:50.282Z,8.40
2018-01-20T11:38:17.153Z,9.60
2018-01-20T11:40:44.196Z,8.93
2018-01-20T11:43:11.002Z,8.30
2018-01-20T11:45:37.810Z,9.00
2018-01-20T11:48:04.797Z,11.50
2018-01-20T11:50:31.698Z,9.23
2018-01-20T11:52:59.278Z,8.73
2018-01-20T11:55:26.146Z,8.93
2018-01-20T11:57:53.087Z,9.53
2018-01-20T12:00:19.945Z,8.53
2018-01-20T12:02:46.761Z,10.00
2018-01-20T12:05:13.629Z,9.87
2018-01-20T12:07:40.493Z,10.20
2018-01-20T12:10:07.342Z,12.13
2018-01-20T12:12:34.213Z,10.10
2018-01-20T12:15:01.073Z,14.27
2018-01-20T12:17:27.978Z,11.60
2018-01-20T12:19:54.893Z,9.40
2018-01-20T12:22:21.768Z,11.07
2018-01-20T12:24:48.653Z,10.93
2018-01-20T12:27:15.598Z,11.63
2018-01-20T12:29:42.477Z,10.10
2018-01-20T12:32:09.385Z,11.07
2018-01-20T12:34:36.286Z,9.20
2018-01-20T12:37:03.264Z,12.27
2018-01-20T12:39:30.905Z,9.50
2018-01-20T12:41:57.765Z,11.07
2018-01-20T12:44:24.653Z,10.30
2018-01-20T12:46:51.529Z,10.03
2018-01-20T12:49:18.494Z,9.10
2018-01-20T12:51:46.142Z,9.03
2018-01-20T12:54:13.744Z,9.17
2018-01-20T12:56:40.599Z,9.13
2018-01-20T12:59:07.458Z,9.60
2018-01-20T13:01:34.362Z,8.73
2018-01-20T13:04:01.209Z,8.47
2018-01-20T13:06:28.045Z,8.07
2018-01-20T13:08:54.969Z,8.60
2018-01-20T13:11:22.601Z,8.33
2018-01-20T13:13:50.211Z,11.70
2018-01-20T13:16:17.068Z,9.90
2018-01-20T13:18:44.002Z,7.60
2018-01-20T13:21:10.858Z,7.83
2018-01-20T13:23:37.688Z,8.93
2018-01-20T13:26:04.558Z,8.83
2018-01-20T13:28:31.425Z,10.37
2018-01-20T13:30:58.273Z,9.40
2018-01-20T13:33:25.920Z,9.57
2018-01-20T13:35:52.750Z,13.70
2018-01-20T13:38:19.614Z,9.90
2018-01-20T13:40:46.466Z,14.83
2018-01-20T13:43:13.300Z,17.23
2018-01-20T13:45:40.194Z,7.83
2018-01-20T13:48:07.844Z,8.03
2018-01-20T13:50:34.798Z,9.37
2018-01-20T13:53:01.882Z,7.63
2018-01-20T13:55:28.717Z,9.43
2018-01-20T13:57:55.577Z,14.57
2018-01-20T14:00:22.460Z,12.07
2018-01-20T14:02:50.045Z,13.83
2018-01-20T14:05:16.902Z,13.30
2018-01-20T14:07:43.769Z,10.40
2018-01-20T14:10:10.682Z,10.77
2018-01-20T14:12:37.557Z,12.20
2018-01-20T14:15:04.425Z,11.73
2018-01-20T14:17:32.055Z,12.03
2018-01-20T14:19:58.977Z,11.77
2018-01-20T14:22:25.794Z,15.40
2018-01-20T14:24:52.796Z,11.43
2018-01-20T14:27:19.753Z,9.50
2018-01-20T14:29:47.496Z,10.10
2018-01-20T14:32:14.341Z,9.23
2018-01-20T14:34:41.289Z,11.93
2018-01-20T14:37:08.314Z,9.73
2018-01-20T14:39:35.130Z,10.67
2018-01-20T14:42:02.166Z,13.45
2018-01-20T14:44:29.056Z,9.93
2018-01-20T14:46:56.009Z,13.35
2018-01-20T14:49:23.086Z,10.25
2018-01-20T14:51:51.734Z,12.40
2018-01-20T14:54:18.982Z,11.18
2018-01-20T14:56:45.894Z,11.88
2018-01-20T14:59:13.134Z,10.75
2018-01-20T15:01:40.222Z,10.40
2018-01-20T15:04:07.367Z,10.32
2018-01-20T15:06:34.270Z,9.60
2018-01-20T15:09:02.206Z,8.85
2018-01-20T15:11:29.188Z,10.05
2018-01-20T15:13:56.181Z,17.42
2018-01-20T15:16:23.057Z,11.15
2018-01-20T15:21:39.202Z,15.82
2018-01-20T15:24:06.419Z,12.65
2018-01-20T15:26:33.275Z,13.27
2018-01-20T15:29:00.201Z,15.70
2018-01-20T15:31:27.047Z,18.33
2018-01-20T15:33:53.902Z,17.42
2018-01-20T15:36:20.814Z,18.42
2018-01-20T15:38:47.874Z,21.70
2018-01-20T15:41:14.877Z,19.27
2018-01-20T15:43:42.067Z,18.60
2018-01-20T15:46:08.986Z,15.93
2018-01-20T15:48:36.197Z,18.05
2018-01-20T15:51:03.810Z,13.80
2018-01-20T15:53:30.712Z,14.07
2018-01-20T15:55:57.660Z,16.95
2018-01-20T15:58:25.525Z,12.40
2018-01-20T16:00:53.037Z,12.50
2018-01-20T16:03:20.914Z,14.82
2018-01-20T16:05:47.769Z,16.30
2018-01-20T16:08:14.987Z,14.10
2018-01-20T16:10:42.002Z,14.73
2018-01-20T16:13:09.330Z,17.05
2018-01-20T16:15:36.653Z,15.50
2018-01-20T16:18:04.296Z,16.55
2018-01-20T16:20:31.443Z,19.98
2018-01-20T16:22:59.326Z,27.85
2018-01-20T16:25:26.827Z,30.52
2018-01-20T16:27:54.642Z,29.95
2018-01-20T16:30:21.630Z,27.10
2018-01-20T16:32:48.755Z,25.48
2018-01-20T16:35:15.710Z,25.15
2018-01-20T16:37:42.702Z,22.92
2018-01-20T16:40:10.062Z,23.42
2018-01-20T16:42:36.885Z,21.98
2018-01-20T16:45:04.059Z,19.00
2018-01-20T16:47:31.069Z,17.55
2018-01-20T16:49:58.234Z,17.85
2018-01-20T16:52:25.095Z,19.85
2018-01-20T16:54:52.079Z,18.50
2018-01-20T16:57:19.050Z,23.17
2018-01-20T16:59:45.921Z,25.05
2018-01-20T17:02:13.581Z,21.30
2018-01-20T17:04:40.501Z,23.55
2018-01-20T17:07:08.418Z,19.62
2018-01-20T17:09:35.558Z,16.48
2018-01-20T17:12:02.518Z,14.93
2018-01-20T17:14:29.429Z,16.95
2018-01-20T17:16:56.490Z,28.15
2018-01-20T17:19:24.220Z,19.15
2018-01-20T17:21:52.233Z,20.48
2018-01-20T17:24:19.262Z,25.45
2018-01-20T17:26:46.236Z,28.05
2018-01-20T17:29:13.966Z,28.52
2018-01-20T17:31:40.993Z,20.83
2018-01-20T17:34:14.545Z,26.37
2018-01-20T17:36:41.406Z,20.08
2018-01-20T17:39:08.302Z,20.67
2018-01-20T17:41:35.210Z,22.90
2018-01-20T17:44:02.135Z,24.05
2018-01-20T17:46:29.020Z,25.08
2018-01-20T17:48:56.678Z,25.58
2018-01-20T17:51:24.248Z,23.60
2018-01-20T17:53:51.138Z,28.17
2018-01-20T17:56:17.982Z,32.13
2018-01-20T17:58:45.766Z,30.55
2018-01-20T18:01:13.552Z,33.28
2018-01-20T18:03:40.591Z,29.42
2018-01-20T18:06:07.766Z,26.90
2018-01-20T18:08:34.734Z,30.55
2018-01-20T18:11:01.582Z,28.80
2018-01-20T18:13:28.463Z,39.42
2018-01-20T18:15:55.375Z,35.63
2018-01-20T18:18:22.378Z,31.90
2018-01-20T18:20:49.962Z,31.60
2018-01-20T18:23:16.826Z,30.75
2018-01-20T18:25:43.698Z,26.25
2018-01-20T18:28:11.599Z,34.03
2018-01-20T18:30:38.474Z,33.40
2018-01-20T18:33:05.326Z,32.72
2018-01-20T18:35:32.231Z,36.97
2018-01-20T18:38:03.571Z,33.90
2018-01-20T18:40:30.446Z,33.58
2018-01-20T18:42:57.293Z,33.78
2018-01-20T18:45:24.131Z,32.88
2018-01-20T18:47:51.118Z,32.40
2018-01-20T18:50:18.753Z,31.58
2018-01-20T18:55:19.305Z,32.03
2018-01-20T18:57:46.170Z,29.17
2018-01-20T19:00:13.071Z,32.50
2018-01-20T19:02:39.957Z,36.17
2018-01-20T19:05:06.846Z,35.55
2018-01-20T19:07:33.754Z,33.33
2018-01-20T19:10:00.649Z,38.45
2018-01-20T19:12:27.493Z,36.08
2018-01-20T19:14:54.330Z,37.65
2018-01-20T19:17:22.249Z,38.03
2018-01-20T19:19:49.354Z,38.92
2018-01-20T19:22:17.054Z,34.67
2018-01-20T19:24:44.778Z,36.13
2018-01-20T19:27:11.675Z,33.22
2018-01-20T19:29:38.510Z,32.88
2018-01-20T19:32:06.118Z,39.42
2018-01-20T19:34:32.962Z,44.03
2018-01-20T19:36:59.818Z,42.13
2018-01-20T19:39:26.649Z,43.10
2018-01-20T19:41:53.659Z,48.28
2018-01-20T19:44:20.547Z,50.78
2018-01-20T19:46:47.381Z,39.72
2018-01-20T19:49:16.153Z,59.80
2018-01-20T19:51:43.186Z,55.03
2018-01-20T19:54:10.862Z,47.40
2018-01-20T19:56:38.581Z,52.55
2018-01-20T19:59:05.428Z,46.60
2018-01-20T20:01:33.076Z,42.97
2018-01-20T20:04:00.015Z,46.45
2018-01-20T20:06:26.908Z,37.92
2018-01-20T20:08:54.134Z,41.60
2018-01-20T20:11:21.874Z,36.05
2018-01-20T20:13:48.787Z,34.03
2018-01-20T20:16:16.534Z,30.80
2018-01-20T20:18:43.479Z,32.65
2018-01-20T20:21:11.069Z,34.60
2018-01-20T20:23:38.086Z,33.42
2018-01-20T20:26:04.994Z,29.60
2018-01-20T20:28:31.972Z,30.37
2018-01-20T20:30:59.651Z,34.22
2018-01-20T20:33:27.238Z,37.10
2018-01-20T20:35:54.122Z,27.55
2018-01-20T20:38:21.211Z,26.77
2018-01-20T20:40:48.050Z,28.65
2018-01-20T20:43:15.210Z,26.80
2018-01-20T20:45:42.111Z,32.47
2018-01-20T20:48:09.863Z,31.55
2018-01-20T20:50:36.717Z,26.70
2018-01-20T20:53:03.861Z,27.62
2018-01-20T20:55:30.727Z,33.50
2018-01-20T20:57:57.897Z,26.25
2018-01-20T21:00:24.874Z,33.33
2018-01-20T21:02:51.708Z,31.87
2018-01-20T21:05:18.806Z,26.10
2018-01-20T21:07:45.777Z,26.33
2018-01-20T21:10:12.766Z,30.48
2018-01-20T21:12:39.593Z,26.67
2018-01-20T21:15:06.457Z,24.75
2018-01-20T21:17:33.539Z,36.03
2018-01-20T21:20:00.405Z,33.05
2018-01-20T21:22:27.251Z,36.58
2018-01-20T21:24:54.093Z,28.50
2018-01-20T21:27:20.973Z,31.87
2018-01-20T21:29:47.805Z,29.55
2018-01-20T21:32:14.790Z,35.03
2018-01-20T21:34:42.380Z,29.48
2018-01-20T21:37:09.335Z,28.83
2018-01-20T21:39:36.295Z,28.00
2018-01-20T21:42:03.217Z,27.00
2018-01-20T21:44:30.094Z,26.85
2018-01-20T21:46:56.970Z,24.17
2018-01-20T21:49:24.934Z,25.17
2018-01-20T21:51:51.830Z,30.02
2018-01-20T21:54:18.717Z,28.77
2018-01-20T21:56:46.306Z,27.87
2018-01-20T21:59:13.200Z,21.80
2018-01-20T22:01:40.082Z,23.50
2018-01-20T22:04:07.670Z,22.02
2018-01-20T22:06:34.489Z,21.83
2018-01-20T22:09:02.221Z,21.27
2018-01-20T22:11:29.349Z,22.52
2018-01-20T22:13:56.230Z,26.85
2018-01-20T22:16:23.830Z,26.77
2018-01-20T22:18:50.717Z,28.27
2018-01-20T22:21:17.578Z,32.05
2018-01-20T22:23:45.165Z,27.95
2018-01-20T22:26:12.066Z,25.45
2018-01-20T22:28:39.038Z,26.30
2018-01-20T22:31:06.626Z,29.02
2018-01-20T22:33:33.474Z,35.10
2018-01-20T22:36:00.297Z,23.73
2018-01-20T22:38:27.946Z,21.65
2018-01-20T22:40:56.421Z,26.42
2018-01-20T22:43:24.010Z,23.50
2018-01-20T22:45:51.652Z,25.70
2018-01-20T22:48:18.594Z,27.58
2018-01-20T22:50:45.494Z,31.23
2018-01-20T22:53:13.130Z,34.40
2018-01-20T22:55:39.971Z,21.87
2018-01-20T22:58:06.850Z,29.75
2018-01-20T23:00:33.732Z,29.58
2018-01-20T23:03:00.595Z,26.67
2018-01-20T23:05:27.457Z,31.75
2018-01-20T23:07:54.378Z,42.92
2018-01-20T23:10:21.209Z,45.35
2018-01-20T23:12:48.047Z,36.75
2018-01-20T23:15:14.898Z,34.08
2018-01-20T23:17:41.786Z,35.30
2018-01-20T23:20:08.647Z,39.78
2018-01-20T23:22:35.498Z,34.65
2018-01-20T23:25:03.125Z,29.85
2018-01-20T23:27:30.059Z,32.33
2018-01-20T23:29:57.894Z,32.35
2018-01-20T23:32:25.461Z,35.08
2018-01-20T23:34:53.010Z,41.53
2018-01-20T23:37:19.961Z,46.35
2018-01-20T23:39:46.830Z,53.08
2018-01-20T23:42:13.739Z,45.15
2018-01-20T23:44:40.622Z,45.05
2018-01-20T23:47:07.488Z,38.58
2018-01-20T23:49:34.382Z,41.53
2018-01-20T23:52:01.217Z,27.58
2018-01-20T23:54:28.053Z,22.42
2018-01-20T23:56:55.686Z,21.80
2018-01-20T23:59:22.662Z,23.50
